createdAt,value
2023-05-19T00:02:00.230Z,3.40
2023-05-19T00:04:27.738Z,3.37
2023-05-19T00:06:54.565Z,3.70
2023-05-19T00:09:22.185Z,3.50
2023-05-19T00:11:49.117Z,3.50
2023-05-19T00:14:16.123Z,3.50
2023-05-19T00:16:43.281Z,3.60
2023-05-19T00:19:10.067Z,3.60
2023-05-19T00:21:40.499Z,3.57
2023-05-19T00:24:07.872Z,3.27
2023-05-19T00:26:34.399Z,3.90
2023-05-19T00:29:05.465Z,3.43
2023-05-19T00:31:33.882Z,3.40
2023-05-19T00:34:01.138Z,3.60
2023-05-19T00:36:28.278Z,3.47
2023-05-19T00:38:55.861Z,3.57
2023-05-19T00:41:22.698Z,3.67
2023-05-19T00:43:50.647Z,3.93
2023-05-19T00:46:19.086Z,3.13
2023-05-19T00:48:45.925Z,4.03
2023-05-19T00:51:16.620Z,3.43
2023-05-19T00:53:48.390Z,3.60
2023-05-19T00:56:16.599Z,3.70
2023-05-19T00:58:44.001Z,3.27
2023-05-19T01:01:12.020Z,3.70
2023-05-19T01:03:40.955Z,4.00
2023-05-19T01:06:07.919Z,3.80
2023-05-19T01:08:37.074Z,3.80
2023-05-19T01:11:07.942Z,3.43
2023-05-19T01:13:35.247Z,3.43
2023-05-19T01:16:01.705Z,3.80
2023-05-19T01:19:01.585Z,3.73
2023-05-19T01:21:46.537Z,3.83
2023-05-19T01:24:34.875Z,4.00
2023-05-19T01:27:33.844Z,3.80
2023-05-19T01:30:25.471Z,3.43
2023-05-19T01:32:59.373Z,3.67
2023-05-19T01:35:26.926Z,3.93
2023-05-19T01:37:56.416Z,4.07
2023-05-19T01:40:24.789Z,3.60
2023-05-19T01:42:55.039Z,3.80
2023-05-19T01:45:23.938Z,3.97
2023-05-19T01:47:54.649Z,4.00
2023-05-19T01:50:21.345Z,3.50
2023-05-19T01:52:49.926Z,4.20
2023-05-19T01:55:16.702Z,3.70
2023-05-19T01:58:07.815Z,3.90
2023-05-19T02:00:53.951Z,3.77
2023-05-19T02:03:51.414Z,3.97
2023-05-19T02:06:31.112Z,4.17
2023-05-19T02:09:02.168Z,3.67
2023-05-19T02:11:36.393Z,3.80
2023-05-19T02:14:12.562Z,4.03
2023-05-19T02:16:39.394Z,3.67
2023-05-19T02:19:05.891Z,4.20
2023-05-19T02:21:33.582Z,4.00
2023-05-19T02:24:00.038Z,4.33
2023-05-19T02:26:26.907Z,4.40
2023-05-19T02:28:53.381Z,4.40
2023-05-19T02:31:19.830Z,4.33
2023-05-19T02:33:46.401Z,4.20
2023-05-19T02:36:14.507Z,4.30
2023-05-19T02:38:41.053Z,4.30
2023-05-19T02:41:07.595Z,4.30
2023-05-19T02:43:34.074Z,4.20
2023-05-19T02:46:00.719Z,4.50
2023-05-19T02:48:27.882Z,4.23
2023-05-19T02:50:54.362Z,4.53
2023-05-19T02:53:20.848Z,4.10
2023-05-19T02:55:47.603Z,4.10
2023-05-19T02:58:14.072Z,4.70
2023-05-19T03:00:40.635Z,4.40
2023-05-19T03:03:07.285Z,4.40
2023-05-19T03:05:33.831Z,4.43
2023-05-19T03:08:00.562Z,4.60
2023-05-19T03:10:27.884Z,3.90
2023-05-19T03:12:54.400Z,4.47
2023-05-19T03:15:23.155Z,4.90
2023-05-19T03:17:49.811Z,4.37
2023-05-19T03:20:16.583Z,4.50
2023-05-19T03:22:43.331Z,4.50
2023-05-19T03:25:10.332Z,4.60
2023-05-19T03:27:36.785Z,4.50
2023-05-19T03:30:06.325Z,4.60
2023-05-19T03:32:33.839Z,4.13
2023-05-19T03:35:00.450Z,4.70
2023-05-19T03:37:27.290Z,5.00
2023-05-19T03:39:53.745Z,4.97
2023-05-19T03:42:20.275Z,5.10
2023-05-19T03:44:46.884Z,4.60
2023-05-19T03:47:13.569Z,5.07
2023-05-19T03:49:52.154Z,5.07
2023-05-19T03:52:50.704Z,5.10
2023-05-19T03:55:29.928Z,4.63
2023-05-19T03:57:56.985Z,5.23
2023-05-19T04:00:23.824Z,5.47
2023-05-19T04:02:51.336Z,4.50
2023-05-19T04:05:17.978Z,4.73
2023-05-19T04:07:46.681Z,4.57
2023-05-19T04:10:13.741Z,5.10
2023-05-19T04:12:40.645Z,4.93
2023-05-19T04:15:08.065Z,4.90
2023-05-19T04:17:34.754Z,4.70
2023-05-19T04:20:01.984Z,4.73
2023-05-19T04:22:28.407Z,4.90
2023-05-19T04:24:54.997Z,4.87
2023-05-19T04:27:22.218Z,4.87
2023-05-19T04:29:49.553Z,4.63
2023-05-19T04:32:17.962Z,5.33
2023-05-19T04:34:46.380Z,5.00
2023-05-19T04:37:20.156Z,5.10
2023-05-19T04:39:46.953Z,5.27
2023-05-19T04:42:13.695Z,5.40
2023-05-19T04:44:40.379Z,5.10
2023-05-19T04:47:09.057Z,5.90
2023-05-19T04:49:38.966Z,8.40
2023-05-19T04:52:10.873Z,8.57
2023-05-19T04:54:38.744Z,8.03
2023-05-19T04:57:06.339Z,7.07
2023-05-19T04:59:36.557Z,5.60
2023-05-19T05:02:05.078Z,5.13
2023-05-19T05:04:31.806Z,5.80
2023-05-19T05:06:58.520Z,6.20
2023-05-19T05:09:25.672Z,6.07
2023-05-19T05:11:53.404Z,5.87
2023-05-19T05:14:20.113Z,5.93
2023-05-19T05:16:47.575Z,6.00
2023-05-19T05:19:20.194Z,5.63
2023-05-19T05:21:47.738Z,5.73
2023-05-19T05:24:16.648Z,5.50
2023-05-19T05:26:48.689Z,5.67
2023-05-19T05:29:15.891Z,5.80
2023-05-19T05:31:42.679Z,5.73
2023-05-19T05:34:10.369Z,5.90
2023-05-19T05:36:36.955Z,5.27
2023-05-19T05:39:03.719Z,6.27
2023-05-19T05:41:35.281Z,5.90
2023-05-19T05:44:07.519Z,5.30
2023-05-19T05:46:34.183Z,5.50
2023-05-19T05:49:01.291Z,5.93
2023-05-19T05:51:28.805Z,5.80
2023-05-19T05:53:56.176Z,5.70
2023-05-19T05:56:30.826Z,5.70
2023-05-19T05:58:57.717Z,5.47
2023-05-19T06:01:24.186Z,5.60
2023-05-19T06:03:51.339Z,6.13
2023-05-19T06:06:21.206Z,5.73
2023-05-19T06:08:47.935Z,5.93
2023-05-19T06:11:15.428Z,5.30
2023-05-19T06:13:42.348Z,5.27
2023-05-19T06:16:14.115Z,5.70
2023-05-19T06:18:44.641Z,5.40
2023-05-19T06:21:13.171Z,5.63
2023-05-19T06:23:41.308Z,5.20
2023-05-19T06:26:10.065Z,5.07
2023-05-19T06:28:37.458Z,5.20
2023-05-19T06:31:04.767Z,6.07
2023-05-19T06:33:41.574Z,5.10
2023-05-19T06:36:09.959Z,5.30
2023-05-19T06:38:38.691Z,5.50
2023-05-19T06:41:06.693Z,5.23
2023-05-19T06:43:33.342Z,5.67
2023-05-19T06:46:03.106Z,5.30
2023-05-19T06:48:31.678Z,5.10
2023-05-19T06:50:58.842Z,5.00
2023-05-19T06:53:26.066Z,4.77
2023-05-19T06:55:58.768Z,5.40
2023-05-19T06:58:27.979Z,4.87
2023-05-19T07:00:55.259Z,5.80
2023-05-19T07:03:24.471Z,5.47
2023-05-19T07:05:51.230Z,5.37
2023-05-19T07:08:17.983Z,4.97
2023-05-19T07:10:44.882Z,5.03
2023-05-19T07:13:14.299Z,5.57
2023-05-19T07:15:41.334Z,5.27
2023-05-19T07:18:07.837Z,5.00
2023-05-19T07:20:35.557Z,4.80
2023-05-19T07:23:02.673Z,4.90
2023-05-19T07:25:30.475Z,5.50
2023-05-19T07:27:57.378Z,4.70
2023-05-19T07:30:23.849Z,5.10
2023-05-19T07:32:50.578Z,5.00
2023-05-19T07:35:17.214Z,5.20
2023-05-19T07:37:43.706Z,5.57
2023-05-19T07:40:10.386Z,4.77
2023-05-19T07:42:36.966Z,5.00
2023-05-19T07:45:03.721Z,5.63
2023-05-19T07:47:30.932Z,5.63
2023-05-19T07:49:57.459Z,4.70
2023-05-19T07:52:23.937Z,4.80
2023-05-19T07:54:50.532Z,4.23
2023-05-19T07:57:18.910Z,4.77
2023-05-19T07:59:45.999Z,4.57
2023-05-19T08:02:12.463Z,4.40
2023-05-19T08:04:39.091Z,4.30
2023-05-19T08:07:05.577Z,4.73
2023-05-19T08:09:32.083Z,4.17
2023-05-19T08:11:58.598Z,4.53
2023-05-19T08:14:25.190Z,4.20
2023-05-19T08:16:51.797Z,4.07
2023-05-19T08:19:19.616Z,3.80
2023-05-19T08:21:46.197Z,3.83
2023-05-19T08:24:12.706Z,4.00
2023-05-19T08:26:39.200Z,3.77
2023-05-19T08:29:05.628Z,4.10
2023-05-19T08:31:32.521Z,3.40
2023-05-19T08:33:59.211Z,3.87
2023-05-19T08:36:25.800Z,3.60
2023-05-19T08:38:52.375Z,3.50
2023-05-19T08:41:18.901Z,3.27
2023-05-19T08:43:46.058Z,3.37
2023-05-19T08:46:14.929Z,3.53
2023-05-19T08:48:43.209Z,3.70
2023-05-19T08:51:32.101Z,2.97
2023-05-19T08:54:14.539Z,3.40
2023-05-19T08:56:43.576Z,2.70
2023-05-19T08:59:11.380Z,2.93
2023-05-19T09:01:39.667Z,2.97
2023-05-19T09:04:06.848Z,2.63
2023-05-19T09:06:33.430Z,2.80
2023-05-19T09:08:59.926Z,3.30
2023-05-19T09:11:27.508Z,3.20
2023-05-19T09:13:54.164Z,3.17
2023-05-19T09:16:21.221Z,2.77
2023-05-19T09:18:56.285Z,2.83
2023-05-19T09:21:34.006Z,3.53
2023-05-19T09:24:09.540Z,3.33
2023-05-19T09:26:40.636Z,3.23
2023-05-19T09:29:21.369Z,2.80
2023-05-19T09:31:50.554Z,2.80
2023-05-19T09:34:17.816Z,2.50
2023-05-19T09:36:46.835Z,2.93
2023-05-19T09:39:18.069Z,2.50
2023-05-19T09:41:46.087Z,2.30
2023-05-19T09:44:34.963Z,2.20
2023-05-19T09:47:02.165Z,2.47
2023-05-19T09:49:30.136Z,2.40
2023-05-19T09:52:03.471Z,2.90
2023-05-19T09:54:32.120Z,2.70
2023-05-19T09:56:59.284Z,2.47
2023-05-19T09:59:30.475Z,2.23
2023-05-19T10:02:00.646Z,2.27
2023-05-19T10:04:29.401Z,2.43
2023-05-19T10:06:59.572Z,2.33
2023-05-19T10:09:28.905Z,2.70
2023-05-19T10:11:57.294Z,2.93
2023-05-19T10:14:28.440Z,2.60
2023-05-19T10:16:57.208Z,2.57
2023-05-19T10:19:25.858Z,2.57
2023-05-19T10:21:53.265Z,2.60
2023-05-19T10:24:21.422Z,2.40
2023-05-19T10:26:56.363Z,2.93
2023-05-19T10:29:30.090Z,2.80
2023-05-19T10:32:01.056Z,2.27
2023-05-19T10:34:50.510Z,2.60
2023-05-19T10:37:31.835Z,2.23
2023-05-19T10:39:58.808Z,2.40
2023-05-19T10:42:50.402Z,2.60
2023-05-19T10:45:22.752Z,2.70
2023-05-19T10:47:54.116Z,2.70
2023-05-19T10:50:20.711Z,2.60
2023-05-19T10:52:55.504Z,3.00
2023-05-19T10:55:44.915Z,3.00
2023-05-19T10:58:11.689Z,2.60
2023-05-19T11:00:39.507Z,2.70
2023-05-19T11:03:17.978Z,2.50
2023-05-19T11:05:46.289Z,2.40
2023-05-19T11:08:13.163Z,2.23
2023-05-19T11:10:39.699Z,2.10
2023-05-19T11:13:07.585Z,1.90
2023-05-19T11:15:36.851Z,1.97
2023-05-19T11:18:04.653Z,2.00
2023-05-19T11:20:34.630Z,2.13
2023-05-19T11:23:09.647Z,2.67
2023-05-19T11:25:43.376Z,2.50
2023-05-19T11:28:16.830Z,2.10
2023-05-19T11:30:46.349Z,2.17
2023-05-19T11:33:13.915Z,2.30
2023-05-19T11:35:41.346Z,2.20
2023-05-19T11:38:07.920Z,2.50
2023-05-19T11:40:34.464Z,2.33
2023-05-19T11:43:01.825Z,2.70
2023-05-19T11:45:33.297Z,2.27
2023-05-19T11:48:03.114Z,2.53
2023-05-19T11:50:31.293Z,2.30
2023-05-19T11:53:00.822Z,2.10
2023-05-19T11:55:27.873Z,1.90
2023-05-19T11:58:04.957Z,2.53
2023-05-19T12:00:39.088Z,2.23
2023-05-19T12:03:06.446Z,2.20
2023-05-19T12:05:39.173Z,2.50
2023-05-19T12:08:08.735Z,2.20
2023-05-19T12:10:35.795Z,2.30
2023-05-19T12:13:03.016Z,2.50
2023-05-19T12:15:31.572Z,2.50
2023-05-19T12:18:00.163Z,2.23
2023-05-19T12:20:29.328Z,2.10
2023-05-19T12:22:56.457Z,2.10
2023-05-19T12:25:24.272Z,2.30
2023-05-19T12:27:52.806Z,1.83
2023-05-19T12:30:26.039Z,1.90
2023-05-19T12:32:54.183Z,1.90
2023-05-19T12:35:23.237Z,2.37
2023-05-19T12:37:50.574Z,2.03
2023-05-19T12:40:17.223Z,2.00
2023-05-19T12:42:48.603Z,1.97
2023-05-19T12:45:15.355Z,2.10
2023-05-19T12:47:41.983Z,2.00
2023-05-19T12:50:10.169Z,2.30
2023-05-19T12:52:44.011Z,1.73
2023-05-19T12:55:11.918Z,2.27
2023-05-19T12:57:43.386Z,2.03
2023-05-19T13:00:25.082Z,1.97
2023-05-19T13:03:02.678Z,2.00
2023-05-19T13:05:31.051Z,1.90
2023-05-19T13:08:00.310Z,2.10
2023-05-19T13:10:28.209Z,1.97
2023-05-19T13:12:56.183Z,2.00
2023-05-19T13:15:24.560Z,1.93
2023-05-19T13:17:51.199Z,1.80
2023-05-19T13:20:19.795Z,1.73
2023-05-19T13:22:50.225Z,1.80
2023-05-19T13:25:17.181Z,2.00
2023-05-19T13:27:48.359Z,1.90
2023-05-19T13:30:16.140Z,2.10
2023-05-19T13:32:42.656Z,2.00
2023-05-19T13:35:09.823Z,1.80
2023-05-19T13:37:36.541Z,1.90
2023-05-19T13:40:03.983Z,1.57
2023-05-19T13:42:32.866Z,1.90
2023-05-19T13:44:59.354Z,1.83
2023-05-19T13:47:26.183Z,2.00
2023-05-19T13:49:53.163Z,1.80
2023-05-19T13:52:22.746Z,1.80
2023-05-19T13:54:49.939Z,1.90
2023-05-19T13:57:16.605Z,2.00
2023-05-19T14:00:00.286Z,1.80
2023-05-19T14:02:28.056Z,2.10
2023-05-19T14:04:55.848Z,1.73
2023-05-19T14:07:22.409Z,2.00
2023-05-19T14:09:50.988Z,1.63
2023-05-19T14:12:17.639Z,2.00
2023-05-19T14:14:44.608Z,2.30
2023-05-19T14:17:11.871Z,3.83
2023-05-19T14:19:38.289Z,5.87
2023-05-19T14:22:04.972Z,3.27
2023-05-19T14:24:31.606Z,2.30
2023-05-19T14:26:58.086Z,3.20
2023-05-19T14:29:24.539Z,2.60
2023-05-19T14:31:51.174Z,2.20
2023-05-19T14:34:20.818Z,1.93
2023-05-19T14:36:48.369Z,1.70
2023-05-19T14:39:15.052Z,1.97
2023-05-19T14:41:41.685Z,1.90
2023-05-19T14:44:08.196Z,2.07
2023-05-19T14:46:34.694Z,1.90
2023-05-19T14:49:02.051Z,2.23
2023-05-19T14:51:28.519Z,1.90
2023-05-19T14:53:54.978Z,2.10
2023-05-19T14:56:22.550Z,1.73
2023-05-19T14:58:49.009Z,2.00
2023-05-19T15:01:15.815Z,1.90
2023-05-19T15:03:42.633Z,1.60
2023-05-19T15:06:10.566Z,1.80
2023-05-19T15:08:41.438Z,2.13
2023-05-19T15:11:08.113Z,2.00
2023-05-19T15:13:34.650Z,1.90
2023-05-19T15:16:16.337Z,1.83
2023-05-19T15:18:44.922Z,1.50
2023-05-19T15:21:11.468Z,1.87
2023-05-19T15:23:37.946Z,1.57
2023-05-19T15:26:04.591Z,1.90
2023-05-19T15:28:31.088Z,2.00
2023-05-19T15:30:57.543Z,1.93
2023-05-19T15:33:24.005Z,1.87
2023-05-19T15:35:52.094Z,1.97
2023-05-19T15:38:19.281Z,2.00
2023-05-19T15:40:46.738Z,1.50
2023-05-19T15:43:13.533Z,2.00
2023-05-19T15:45:39.980Z,2.13
2023-05-19T15:48:06.767Z,2.00
2023-05-19T15:50:33.481Z,1.70
2023-05-19T15:53:00.375Z,1.70
2023-05-19T15:55:26.915Z,1.80
2023-05-19T15:57:53.383Z,1.70
2023-05-19T16:00:20.452Z,1.90
2023-05-19T16:02:47.464Z,1.70
2023-05-19T16:05:14.061Z,1.80
2023-05-19T16:07:42.155Z,2.00
2023-05-19T16:10:09.307Z,2.07
2023-05-19T16:12:36.606Z,2.00
2023-05-19T16:15:03.563Z,1.70
2023-05-19T16:17:30.167Z,1.93
2023-05-19T16:19:56.732Z,1.90
2023-05-19T16:22:24.821Z,2.00
2023-05-19T16:24:52.226Z,2.47
2023-05-19T16:27:19.042Z,1.90
2023-05-19T16:29:46.212Z,1.67
2023-05-19T16:32:12.890Z,1.70
2023-05-19T16:34:39.714Z,1.80
2023-05-19T16:37:06.189Z,2.20
2023-05-19T16:39:32.856Z,1.90
2023-05-19T16:41:59.395Z,2.03
2023-05-19T16:44:26.235Z,2.10
2023-05-19T16:46:52.737Z,1.80
2023-05-19T16:49:19.248Z,2.17
2023-05-19T16:51:48.193Z,1.67
2023-05-19T16:54:15.682Z,1.73
2023-05-19T16:56:42.924Z,2.00
2023-05-19T16:59:10.164Z,1.77
2023-05-19T17:01:36.664Z,1.83
2023-05-19T17:04:03.225Z,1.93
2023-05-19T17:06:29.732Z,2.07
2023-05-19T17:08:56.169Z,2.17
2023-05-19T17:11:22.883Z,2.10
2023-05-19T17:13:49.336Z,2.33
2023-05-19T17:16:16.123Z,2.10
2023-05-19T17:18:43.948Z,2.00
2023-05-19T17:21:10.899Z,2.10
2023-05-19T17:23:38.096Z,2.23
2023-05-19T17:26:05.116Z,2.23
2023-05-19T17:28:31.719Z,2.10
2023-05-19T17:30:58.337Z,2.00
2023-05-19T17:33:25.005Z,2.00
2023-05-19T17:35:51.641Z,2.37
2023-05-19T17:38:18.360Z,2.00
2023-05-19T17:40:45.068Z,1.93
2023-05-19T17:43:11.683Z,2.10
2023-05-19T17:45:38.116Z,1.80
2023-05-19T17:48:05.093Z,1.90
2023-05-19T17:50:31.966Z,2.20
2023-05-19T17:52:59.005Z,1.90
2023-05-19T17:55:29.714Z,2.20
2023-05-19T17:57:56.760Z,1.97
2023-05-19T18:00:23.781Z,2.00
2023-05-19T18:02:51.143Z,1.93
2023-05-19T18:05:18.338Z,1.87
2023-05-19T18:07:45.354Z,1.90
2023-05-19T18:10:15.193Z,1.93
2023-05-19T18:12:41.754Z,2.07
2023-05-19T18:15:08.575Z,2.10
2023-05-19T18:17:35.092Z,1.90
2023-05-19T18:20:01.973Z,1.83
2023-05-19T18:22:28.427Z,1.73
2023-05-19T18:24:55.290Z,2.10
2023-05-19T18:27:21.727Z,2.10
2023-05-19T18:29:48.406Z,2.07
2023-05-19T18:32:16.910Z,1.90
2023-05-19T18:34:43.826Z,1.97
2023-05-19T18:37:10.279Z,1.90
2023-05-19T18:39:36.971Z,1.80
2023-05-19T18:42:03.478Z,2.10
2023-05-19T18:44:29.988Z,2.10
2023-05-19T18:46:56.478Z,1.83
2023-05-19T18:49:24.707Z,1.80
2023-05-19T18:51:51.194Z,1.97
2023-05-19T18:54:17.707Z,1.87
2023-05-19T18:56:44.207Z,1.90
2023-05-19T18:59:11.158Z,2.10
2023-05-19T19:01:37.830Z,1.83
2023-05-19T19:04:04.683Z,2.10
2023-05-19T19:06:31.238Z,1.80
2023-05-19T19:08:57.726Z,2.00
2023-05-19T19:11:24.159Z,2.10
2023-05-19T19:13:55.437Z,1.97
2023-05-19T19:16:22.250Z,2.17
2023-05-19T19:18:48.803Z,2.00
2023-05-19T19:21:15.451Z,1.97
2023-05-19T19:23:41.956Z,2.13
2023-05-19T19:26:09.456Z,2.10
2023-05-19T19:28:36.368Z,2.10
2023-05-19T19:31:02.958Z,1.93
2023-05-19T19:33:29.430Z,2.13
2023-05-19T19:35:55.943Z,2.07
2023-05-19T19:38:22.750Z,2.00
2023-05-19T19:40:51.457Z,2.10
2023-05-19T19:43:18.599Z,1.87
2023-05-19T19:45:45.348Z,1.93
2023-05-19T19:48:12.113Z,2.10
2023-05-19T19:50:38.743Z,1.90
2023-05-19T19:53:05.376Z,1.70
2023-05-19T19:55:31.803Z,2.10
2023-05-19T19:57:58.353Z,2.13
2023-05-19T20:00:24.804Z,2.10
2023-05-19T20:03:04.341Z,2.00
2023-05-19T20:05:31.956Z,1.80
2023-05-19T20:07:58.385Z,2.00
2023-05-19T20:10:24.906Z,2.20
2023-05-19T20:12:51.862Z,2.23
2023-05-19T20:15:18.670Z,1.93
2023-05-19T20:17:45.690Z,2.03
2023-05-19T20:20:12.643Z,1.93
2023-05-19T20:22:39.091Z,2.37
2023-05-19T20:25:06.127Z,1.90
2023-05-19T20:27:32.615Z,1.93
2023-05-19T20:29:59.139Z,2.30
2023-05-19T20:32:25.683Z,1.90
2023-05-19T20:34:52.239Z,2.27
2023-05-19T20:37:18.740Z,2.20
2023-05-19T20:39:45.354Z,2.30
2023-05-19T20:42:12.221Z,2.20
2023-05-19T20:44:38.679Z,2.10
2023-05-19T20:47:07.808Z,1.87
2023-05-19T20:49:34.649Z,1.80
2023-05-19T20:52:01.187Z,2.00
2023-05-19T20:54:27.625Z,2.30
2023-05-19T20:56:54.131Z,2.10
2023-05-19T20:59:20.738Z,2.17
2023-05-19T21:01:47.613Z,2.20
2023-05-19T21:04:14.120Z,1.90
2023-05-19T21:06:40.624Z,1.93
2023-05-19T21:09:07.213Z,2.07
2023-05-19T21:11:34.175Z,2.00
2023-05-19T21:14:04.195Z,2.23
2023-05-19T21:16:31.321Z,2.10
2023-05-19T21:18:57.940Z,2.20
2023-05-19T21:21:24.677Z,2.20
2023-05-19T21:23:51.123Z,2.13
2023-05-19T21:26:18.030Z,2.07
2023-05-19T21:28:44.910Z,2.07
2023-05-19T21:31:12.282Z,2.17
2023-05-19T21:33:38.932Z,2.00
2023-05-19T21:36:05.902Z,1.90
2023-05-19T21:38:32.418Z,2.30
2023-05-19T21:40:58.981Z,2.20
2023-05-19T21:43:25.902Z,2.20
2023-05-19T21:45:52.356Z,2.33
2023-05-19T21:48:19.461Z,2.40
2023-05-19T21:50:51.217Z,2.40
2023-05-19T21:53:17.923Z,2.30
2023-05-19T21:55:44.746Z,2.40
2023-05-19T21:58:12.164Z,2.43
2023-05-19T22:00:38.832Z,2.53
2023-05-19T22:03:05.463Z,2.33
2023-05-19T22:05:35.097Z,2.60
2023-05-19T22:08:28.110Z,2.60
2023-05-19T22:10:54.890Z,2.30
2023-05-19T22:13:21.816Z,2.50
2023-05-19T22:15:48.689Z,2.47
2023-05-19T22:18:15.226Z,2.47
2023-05-19T22:20:41.740Z,2.20
2023-05-19T22:23:08.286Z,2.30
2023-05-19T22:25:34.804Z,2.50
2023-05-19T22:28:01.265Z,2.63
2023-05-19T22:30:27.837Z,2.40
2023-05-19T22:32:54.329Z,2.40
2023-05-19T22:35:21.244Z,2.53
2023-05-19T22:37:47.812Z,2.60
2023-05-19T22:40:14.320Z,2.30
2023-05-19T22:42:40.896Z,2.93
2023-05-19T22:45:07.952Z,2.50
2023-05-19T22:47:34.415Z,2.80
2023-05-19T22:50:00.973Z,2.50
2023-05-19T22:52:27.436Z,2.70
2023-05-19T22:54:53.920Z,2.90
2023-05-19T22:57:20.603Z,2.40
2023-05-19T22:59:47.069Z,2.90
2023-05-19T23:02:13.491Z,2.47
2023-05-19T23:04:40.086Z,2.60
2023-05-19T23:07:06.557Z,2.67
2023-05-19T23:09:33.015Z,2.57
2023-05-19T23:11:59.442Z,2.87
2023-05-19T23:14:25.967Z,2.70
2023-05-19T23:16:52.450Z,2.87
2023-05-19T23:19:20.485Z,2.60
2023-05-19T23:21:48.922Z,2.87
2023-05-19T23:24:16.201Z,2.63
2023-05-19T23:26:46.540Z,2.67
2023-05-19T23:29:13.946Z,2.70
2023-05-19T23:31:41.307Z,2.60
2023-05-19T23:34:08.131Z,2.70
2023-05-19T23:36:34.699Z,2.87
2023-05-19T23:39:01.164Z,2.77
2023-05-19T23:41:28.791Z,3.00
2023-05-19T23:43:55.322Z,2.47
2023-05-19T23:46:22.413Z,2.83
2023-05-19T23:48:49.019Z,2.70
2023-05-19T23:51:15.810Z,2.60
2023-05-19T23:53:42.235Z,2.60
2023-05-19T23:56:08.725Z,2.70
2023-05-19T23:58:35.215Z,2.60
